sensor_id;sensor_type;location;lat;lon;timestamp;P1;durP1;ratioP1;P2;durP2;ratioP2
16450;SDS011;12243;42.708;23.310;2023-03-14T00:02:05;6.70;;;5.20;;
16450;SDS011;12243;42.708;23.310;2023-03-14T00:04:32;7.50;;;5.77;;
16450;SDS011;12243;42.708;23.310;2023-03-14T00:06:59;6.73;;;5.23;;
16450;SDS011;12243;42.708;23.310;2023-03-14T00:09:26;5.63;;;4.93;;
16450;SDS011;12243;42.708;23.310;2023-03-14T00:11:55;5.70;;;4.60;;
16450;SDS011;12243;42.708;23.310;2023-03-14T00:14:22;6.07;;;4.90;;
16450;SDS011;12243;42.708;23.310;2023-03-14T00:16:51;6.70;;;5.33;;
16450;SDS011;12243;42.708;23.310;2023-03-14T00:19:17;6.40;;;4.83;;
16450;SDS011;12243;42.708;23.310;2023-03-14T00:21:44;7.90;;;5.00;;
16450;SDS011;12243;42.708;23.310;2023-03-14T00:24:11;7.60;;;5.70;;
16450;SDS011;12243;42.708;23.310;2023-03-14T00:26:38;6.43;;;4.97;;
16450;SDS011;12243;42.708;23.310;2023-03-14T00:29:05;8.10;;;4.87;;
16450;SDS011;12243;42.708;23.310;2023-03-14T00:31:32;5.63;;;5.00;;
16450;SDS011;12243;42.708;23.310;2023-03-14T00:34:02;8.27;;;5.37;;
16450;SDS011;12243;42.708;23.310;2023-03-14T00:36:31;6.43;;;4.60;;
16450;SDS011;12243;42.708;23.310;2023-03-14T00:38:58;7.47;;;4.50;;
16450;SDS011;12243;42.708;23.310;2023-03-14T00:41:25;5.20;;;4.70;;
16450;SDS011;12243;42.708;23.310;2023-03-14T00:43:51;8.13;;;5.23;;
16450;SDS011;12243;42.708;23.310;2023-03-14T00:46:19;7.87;;;5.30;;
16450;SDS011;12243;42.708;23.310;2023-03-14T00:48:46;5.40;;;4.60;;
16450;SDS011;12243;42.708;23.310;2023-03-14T00:51:14;6.00;;;4.57;;
16450;SDS011;12243;42.708;23.310;2023-03-14T00:53:42;5.10;;;4.23;;
16450;SDS011;12243;42.708;23.310;2023-03-14T00:56:11;5.37;;;4.60;;
16450;SDS011;12243;42.708;23.310;2023-03-14T00:58:39;9.20;;;4.50;;
16450;SDS011;12243;42.708;23.310;2023-03-14T01:01:07;4.90;;;4.40;;
16450;SDS011;12243;42.708;23.310;2023-03-14T01:03:35;6.00;;;4.60;;
16450;SDS011;12243;42.708;23.310;2023-03-14T01:06:09;4.50;;;4.10;;
16450;SDS011;12243;42.708;23.310;2023-03-14T01:08:39;4.40;;;4.00;;
16450;SDS011;12243;42.708;23.310;2023-03-14T01:11:07;5.57;;;4.30;;
16450;SDS011;12243;42.708;23.310;2023-03-14T01:13:35;4.77;;;4.27;;
16450;SDS011;12243;42.708;23.310;2023-03-14T01:16:02;4.73;;;4.23;;
16450;SDS011;12243;42.708;23.310;2023-03-14T01:18:31;4.17;;;3.70;;
16450;SDS011;12243;42.708;23.310;2023-03-14T01:21:00;4.13;;;3.70;;
16450;SDS011;12243;42.708;23.310;2023-03-14T01:23:27;5.37;;;4.50;;
16450;SDS011;12243;42.708;23.310;2023-03-14T01:25:56;5.27;;;4.13;;
16450;SDS011;12243;42.708;23.310;2023-03-14T01:28:22;4.13;;;3.83;;
16450;SDS011;12243;42.708;23.310;2023-03-14T01:30:49;6.27;;;4.00;;
16450;SDS011;12243;42.708;23.310;2023-03-14T01:33:16;7.20;;;4.10;;
16450;SDS011;12243;42.708;23.310;2023-03-14T01:35:44;4.57;;;4.10;;
16450;SDS011;12243;42.708;23.310;2023-03-14T01:38:11;6.70;;;4.10;;
16450;SDS011;12243;42.708;23.310;2023-03-14T01:40:41;6.00;;;3.93;;
16450;SDS011;12243;42.708;23.310;2023-03-14T01:43:14;4.63;;;4.20;;
16450;SDS011;12243;42.708;23.310;2023-03-14T01:46:05;4.00;;;3.70;;
16450;SDS011;12243;42.708;23.310;2023-03-14T01:48:44;5.57;;;4.50;;
16450;SDS011;12243;42.708;23.310;2023-03-14T01:51:18;4.50;;;4.10;;
16450;SDS011;12243;42.708;23.310;2023-03-14T01:53:48;8.00;;;3.93;;
16450;SDS011;12243;42.708;23.310;2023-03-14T01:56:16;5.40;;;3.77;;
16450;SDS011;12243;42.708;23.310;2023-03-14T01:58:47;5.07;;;4.57;;
16450;SDS011;12243;42.708;23.310;2023-03-14T02:01:18;7.20;;;5.70;;
16450;SDS011;12243;42.708;23.310;2023-03-14T02:03:48;10.83;;;6.90;;
16450;SDS011;12243;42.708;23.310;2023-03-14T02:06:21;7.93;;;6.80;;
16450;SDS011;12243;42.708;23.310;2023-03-14T02:08:51;11.23;;;7.53;;
16450;SDS011;12243;42.708;23.310;2023-03-14T02:11:24;11.33;;;7.50;;
16450;SDS011;12243;42.708;23.310;2023-03-14T02:14:29;10.73;;;6.93;;
16450;SDS011;12243;42.708;23.310;2023-03-14T02:17:16;13.97;;;8.83;;
16450;SDS011;12243;42.708;23.310;2023-03-14T02:20:06;15.13;;;9.37;;
16450;SDS011;12243;42.708;23.310;2023-03-14T02:22:42;12.57;;;8.87;;
16450;SDS011;12243;42.708;23.310;2023-03-14T02:25:12;13.03;;;9.07;;
16450;SDS011;12243;42.708;23.310;2023-03-14T02:27:44;13.73;;;9.13;;
16450;SDS011;12243;42.708;23.310;2023-03-14T02:30:13;14.47;;;8.93;;
16450;SDS011;12243;42.708;23.310;2023-03-14T02:32:43;15.30;;;9.13;;
16450;SDS011;12243;42.708;23.310;2023-03-14T02:35:14;13.27;;;9.47;;
16450;SDS011;12243;42.708;23.310;2023-03-14T02:37:47;14.33;;;8.93;;
16450;SDS011;12243;42.708;23.310;2023-03-14T02:40:19;19.93;;;10.00;;
16450;SDS011;12243;42.708;23.310;2023-03-14T02:42:51;16.67;;;10.30;;
16450;SDS011;12243;42.708;23.310;2023-03-14T02:45:33;20.67;;;9.90;;
16450;SDS011;12243;42.708;23.310;2023-03-14T02:48:06;16.77;;;10.23;;
16450;SDS011;12243;42.708;23.310;2023-03-14T02:50:38;17.80;;;10.93;;
16450;SDS011;12243;42.708;23.310;2023-03-14T02:53:05;17.67;;;11.33;;
16450;SDS011;12243;42.708;23.310;2023-03-14T02:55:32;20.10;;;11.50;;
16450;SDS011;12243;42.708;23.310;2023-03-14T02:58:05;16.17;;;10.97;;
16450;SDS011;12243;42.708;23.310;2023-03-14T03:00:33;19.27;;;11.73;;
16450;SDS011;12243;42.708;23.310;2023-03-14T03:03:02;19.63;;;11.60;;
16450;SDS011;12243;42.708;23.310;2023-03-14T03:05:30;20.53;;;12.20;;
16450;SDS011;12243;42.708;23.310;2023-03-14T03:07:59;21.97;;;12.17;;
16450;SDS011;12243;42.708;23.310;2023-03-14T03:10:26;19.50;;;12.07;;
16450;SDS011;12243;42.708;23.310;2023-03-14T03:12:54;21.70;;;12.33;;
16450;SDS011;12243;42.708;23.310;2023-03-14T03:15:25;18.53;;;12.50;;
16450;SDS011;12243;42.708;23.310;2023-03-14T03:17:53;18.90;;;12.87;;
16450;SDS011;12243;42.708;23.310;2023-03-14T03:20:23;20.83;;;12.80;;
16450;SDS011;12243;42.708;23.310;2023-03-14T03:22:50;20.37;;;12.53;;
16450;SDS011;12243;42.708;23.310;2023-03-14T03:25:17;18.30;;;12.37;;
16450;SDS011;12243;42.708;23.310;2023-03-14T03:27:44;18.63;;;12.73;;
16450;SDS011;12243;42.708;23.310;2023-03-14T03:30:14;19.50;;;12.53;;
16450;SDS011;12243;42.708;23.310;2023-03-14T03:32:43;17.23;;;11.93;;
16450;SDS011;12243;42.708;23.310;2023-03-14T03:35:11;16.00;;;12.07;;
16450;SDS011;12243;42.708;23.310;2023-03-14T03:37:38;16.90;;;11.70;;
16450;SDS011;12243;42.708;23.310;2023-03-14T03:40:06;16.93;;;11.07;;
16450;SDS011;12243;42.708;23.310;2023-03-14T03:42:35;17.40;;;11.90;;
16450;SDS011;12243;42.708;23.310;2023-03-14T03:45:04;18.70;;;11.03;;
16450;SDS011;12243;42.708;23.310;2023-03-14T03:47:37;17.27;;;11.67;;
16450;SDS011;12243;42.708;23.310;2023-03-14T03:50:06;19.77;;;11.80;;
16450;SDS011;12243;42.708;23.310;2023-03-14T03:52:34;17.43;;;11.53;;
16450;SDS011;12243;42.708;23.310;2023-03-14T03:55:01;19.10;;;11.20;;
16450;SDS011;12243;42.708;23.310;2023-03-14T03:57:28;16.90;;;11.07;;
16450;SDS011;12243;42.708;23.310;2023-03-14T04:00:02;18.68;;;11.38;;
16450;SDS011;12243;42.708;23.310;2023-03-14T04:02:39;15.53;;;10.80;;
16450;SDS011;12243;42.708;23.310;2023-03-14T04:05:10;14.53;;;11.30;;
16450;SDS011;12243;42.708;23.310;2023-03-14T04:07:42;18.83;;;11.83;;
16450;SDS011;12243;42.708;23.310;2023-03-14T04:10:09;14.90;;;10.53;;
16450;SDS011;12243;42.708;23.310;2023-03-14T04:12:41;18.73;;;11.17;;
16450;SDS011;12243;42.708;23.310;2023-03-14T04:15:11;21.37;;;11.07;;
16450;SDS011;12243;42.708;23.310;2023-03-14T04:17:44;16.53;;;11.47;;
16450;SDS011;12243;42.708;23.310;2023-03-14T04:20:14;19.30;;;11.47;;
16450;SDS011;12243;42.708;23.310;2023-03-14T04:22:41;22.50;;;11.30;;
16450;SDS011;12243;42.708;23.310;2023-03-14T04:25:11;15.88;;;11.73;;
16450;SDS011;12243;42.708;23.310;2023-03-14T04:27:45;17.60;;;12.00;;
16450;SDS011;12243;42.708;23.310;2023-03-14T04:30:20;20.97;;;12.73;;
16450;SDS011;12243;42.708;23.310;2023-03-14T04:32:57;22.13;;;12.17;;
16450;SDS011;12243;42.708;23.310;2023-03-14T04:35:27;18.30;;;12.47;;
16450;SDS011;12243;42.708;23.310;2023-03-14T04:38:00;20.47;;;12.60;;
16450;SDS011;12243;42.708;23.310;2023-03-14T04:40:30;23.23;;;12.63;;
16450;SDS011;12243;42.708;23.310;2023-03-14T04:46:34;28.50;;;14.33;;
16450;SDS011;12243;42.708;23.310;2023-03-14T04:49:05;24.73;;;14.20;;
16450;SDS011;12243;42.708;23.310;2023-03-14T04:51:34;27.13;;;13.60;;
16450;SDS011;12243;42.708;23.310;2023-03-14T04:54:00;24.70;;;13.77;;
16450;SDS011;12243;42.708;23.310;2023-03-14T04:56:28;22.80;;;13.37;;
16450;SDS011;12243;42.708;23.310;2023-03-14T04:58:55;22.73;;;12.80;;
16450;SDS011;12243;42.708;23.310;2023-03-14T05:01:22;16.53;;;12.57;;
16450;SDS011;12243;42.708;23.310;2023-03-14T05:03:49;20.20;;;11.87;;
16450;SDS011;12243;42.708;23.310;2023-03-14T05:06:41;20.57;;;12.53;;
16450;SDS011;12243;42.708;23.310;2023-03-14T05:09:21;19.47;;;12.90;;
16450;SDS011;12243;42.708;23.310;2023-03-14T05:12:08;18.03;;;12.80;;
16450;SDS011;12243;42.708;23.310;2023-03-14T05:14:59;20.83;;;13.57;;
16450;SDS011;12243;42.708;23.310;2023-03-14T05:17:55;22.83;;;12.43;;
16450;SDS011;12243;42.708;23.310;2023-03-14T05:20:42;20.20;;;12.60;;
16450;SDS011;12243;42.708;23.310;2023-03-14T05:23:36;22.30;;;12.40;;
16450;SDS011;12243;42.708;23.310;2023-03-14T05:26:24;19.00;;;12.00;;
16450;SDS011;12243;42.708;23.310;2023-03-14T05:28:58;23.83;;;12.07;;
16450;SDS011;12243;42.708;23.310;2023-03-14T05:31:48;17.43;;;11.90;;
16450;SDS011;12243;42.708;23.310;2023-03-14T05:34:24;26.30;;;12.37;;
16450;SDS011;12243;42.708;23.310;2023-03-14T05:37:21;18.17;;;12.20;;
16450;SDS011;12243;42.708;23.310;2023-03-14T05:40:14;19.57;;;11.47;;
16450;SDS011;12243;42.708;23.310;2023-03-14T05:42:57;22.83;;;12.77;;
16450;SDS011;12243;42.708;23.310;2023-03-14T05:45:42;20.20;;;11.57;;
16450;SDS011;12243;42.708;23.310;2023-03-14T05:48:29;15.60;;;11.13;;
16450;SDS011;12243;42.708;23.310;2023-03-14T05:51:17;18.53;;;11.70;;
16450;SDS011;12243;42.708;23.310;2023-03-14T05:54:02;19.80;;;12.90;;
16450;SDS011;12243;42.708;23.310;2023-03-14T05:56:43;25.90;;;16.47;;
16450;SDS011;12243;42.708;23.310;2023-03-14T05:59:23;24.70;;;14.37;;
16450;SDS011;12243;42.708;23.310;2023-03-14T06:02:02;27.60;;;13.27;;
16450;SDS011;12243;42.708;23.310;2023-03-14T06:04:39;23.93;;;13.73;;
16450;SDS011;12243;42.708;23.310;2023-03-14T06:07:06;21.67;;;12.17;;
16450;SDS011;12243;42.708;23.310;2023-03-14T06:09:33;23.23;;;13.20;;
16450;SDS011;12243;42.708;23.310;2023-03-14T06:12:03;20.73;;;13.13;;
16450;SDS011;12243;42.708;23.310;2023-03-14T06:14:35;27.23;;;15.97;;
16450;SDS011;12243;42.708;23.310;2023-03-14T06:17:03;24.23;;;14.77;;
16450;SDS011;12243;42.708;23.310;2023-03-14T06:19:36;19.50;;;13.17;;
16450;SDS011;12243;42.708;23.310;2023-03-14T06:22:03;23.13;;;13.27;;
16450;SDS011;12243;42.708;23.310;2023-03-14T06:24:37;20.97;;;13.47;;
16450;SDS011;12243;42.708;23.310;2023-03-14T06:27:05;24.27;;;13.27;;
16450;SDS011;12243;42.708;23.310;2023-03-14T06:29:32;22.07;;;12.73;;
16450;SDS011;12243;42.708;23.310;2023-03-14T06:32:00;30.63;;;14.70;;
16450;SDS011;12243;42.708;23.310;2023-03-14T06:34:27;28.20;;;14.33;;
16450;SDS011;12243;42.708;23.310;2023-03-14T06:36:54;21.60;;;14.00;;
16450;SDS011;12243;42.708;23.310;2023-03-14T06:39:21;21.73;;;13.43;;
16450;SDS011;12243;42.708;23.310;2023-03-14T06:41:56;24.50;;;13.90;;
16450;SDS011;12243;42.708;23.310;2023-03-14T06:44:24;23.60;;;12.97;;
16450;SDS011;12243;42.708;23.310;2023-03-14T06:46:51;21.13;;;12.57;;
16450;SDS011;12243;42.708;23.310;2023-03-14T06:49:18;28.57;;;14.13;;
16450;SDS011;12243;42.708;23.310;2023-03-14T06:51:45;20.60;;;13.50;;
16450;SDS011;12243;42.708;23.310;2023-03-14T06:54:13;23.17;;;14.07;;
16450;SDS011;12243;42.708;23.310;2023-03-14T06:56:40;21.93;;;14.70;;
16450;SDS011;12243;42.708;23.310;2023-03-14T06:59:08;29.47;;;15.90;;
16450;SDS011;12243;42.708;23.310;2023-03-14T07:01:37;25.63;;;15.40;;
16450;SDS011;12243;42.708;23.310;2023-03-14T07:04:06;22.90;;;14.77;;
16450;SDS011;12243;42.708;23.310;2023-03-14T07:06:36;25.40;;;14.50;;
16450;SDS011;12243;42.708;23.310;2023-03-14T07:09:04;25.60;;;15.73;;
16450;SDS011;12243;42.708;23.310;2023-03-14T07:11:34;17.77;;;13.17;;
16450;SDS011;12243;42.708;23.310;2023-03-14T07:14:02;24.23;;;13.90;;
16450;SDS011;12243;42.708;23.310;2023-03-14T07:16:29;18.93;;;13.80;;
16450;SDS011;12243;42.708;23.310;2023-03-14T07:18:59;18.87;;;13.00;;
16450;SDS011;12243;42.708;23.310;2023-03-14T07:21:26;19.90;;;13.67;;
16450;SDS011;12243;42.708;23.310;2023-03-14T07:23:54;17.70;;;13.00;;
16450;SDS011;12243;42.708;23.310;2023-03-14T07:26:21;18.30;;;14.00;;
16450;SDS011;12243;42.708;23.310;2023-03-14T07:28:50;25.97;;;15.10;;
16450;SDS011;12243;42.708;23.310;2023-03-14T07:31:19;18.27;;;13.83;;
16450;SDS011;12243;42.708;23.310;2023-03-14T07:33:46;21.57;;;14.63;;
16450;SDS011;12243;42.708;23.310;2023-03-14T07:36:15;21.73;;;13.40;;
16450;SDS011;12243;42.708;23.310;2023-03-14T07:38:43;25.57;;;12.93;;
16450;SDS011;12243;42.708;23.310;2023-03-14T07:41:28;21.10;;;13.50;;
16450;SDS011;12243;42.708;23.310;2023-03-14T07:44:13;24.33;;;14.07;;
16450;SDS011;12243;42.708;23.310;2023-03-14T07:46:40;18.33;;;12.30;;
16450;SDS011;12243;42.708;23.310;2023-03-14T07:49:07;19.77;;;13.80;;
16450;SDS011;12243;42.708;23.310;2023-03-14T07:51:35;19.60;;;13.23;;
16450;SDS011;12243;42.708;23.310;2023-03-14T07:54:02;19.00;;;12.40;;
16450;SDS011;12243;42.708;23.310;2023-03-14T07:56:29;17.40;;;12.60;;
16450;SDS011;12243;42.708;23.310;2023-03-14T07:58:56;17.57;;;12.63;;
16450;SDS011;12243;42.708;23.310;2023-03-14T08:01:23;21.37;;;12.23;;
16450;SDS011;12243;42.708;23.310;2023-03-14T08:03:50;19.87;;;12.00;;
16450;SDS011;12243;42.708;23.310;2023-03-14T08:06:17;19.07;;;11.20;;
16450;SDS011;12243;42.708;23.310;2023-03-14T08:08:45;18.93;;;10.80;;
16450;SDS011;12243;42.708;23.310;2023-03-14T08:11:12;16.13;;;9.63;;
16450;SDS011;12243;42.708;23.310;2023-03-14T08:13:39;22.10;;;10.00;;
16450;SDS011;12243;42.708;23.310;2023-03-14T08:16:06;16.93;;;9.70;;
16450;SDS011;12243;42.708;23.310;2023-03-14T08:18:34;14.77;;;9.67;;
16450;SDS011;12243;42.708;23.310;2023-03-14T08:21:01;14.17;;;9.63;;
16450;SDS011;12243;42.708;23.310;2023-03-14T08:23:28;10.47;;;8.10;;
16450;SDS011;12243;42.708;23.310;2023-03-14T08:25:56;9.87;;;7.40;;
16450;SDS011;12243;42.708;23.310;2023-03-14T08:28:23;11.30;;;7.70;;
16450;SDS011;12243;42.708;23.310;2023-03-14T08:30:55;12.67;;;6.87;;
16450;SDS011;12243;42.708;23.310;2023-03-14T08:33:23;9.77;;;7.23;;
16450;SDS011;12243;42.708;23.310;2023-03-14T08:35:51;10.07;;;7.07;;
16450;SDS011;12243;42.708;23.310;2023-03-14T08:38:18;8.67;;;7.10;;
16450;SDS011;12243;42.708;23.310;2023-03-14T08:40:45;9.20;;;6.73;;
16450;SDS011;12243;42.708;23.310;2023-03-14T08:43:13;13.43;;;9.37;;
16450;SDS011;12243;42.708;23.310;2023-03-14T08:45:40;8.03;;;6.07;;
16450;SDS011;12243;42.708;23.310;2023-03-14T08:48:07;7.93;;;6.23;;
16450;SDS011;12243;42.708;23.310;2023-03-14T08:50:34;11.07;;;7.47;;
16450;SDS011;12243;42.708;23.310;2023-03-14T08:53:01;12.90;;;7.20;;
16450;SDS011;12243;42.708;23.310;2023-03-14T08:55:28;10.67;;;7.03;;
16450;SDS011;12243;42.708;23.310;2023-03-14T08:57:55;9.63;;;7.17;;
16450;SDS011;12243;42.708;23.310;2023-03-14T09:00:26;11.40;;;6.63;;
16450;SDS011;12243;42.708;23.310;2023-03-14T09:02:52;8.40;;;6.17;;
16450;SDS011;12243;42.708;23.310;2023-03-14T09:05:19;14.10;;;6.80;;
16450;SDS011;12243;42.708;23.310;2023-03-14T09:07:46;9.37;;;6.97;;
16450;SDS011;12243;42.708;23.310;2023-03-14T09:10:13;8.27;;;7.00;;
16450;SDS011;12243;42.708;23.310;2023-03-14T09:12:40;12.20;;;6.77;;
16450;SDS011;12243;42.708;23.310;2023-03-14T09:15:07;11.20;;;7.97;;
16450;SDS011;12243;42.708;23.310;2023-03-14T09:17:36;6.43;;;5.40;;
16450;SDS011;12243;42.708;23.310;2023-03-14T09:20:04;7.60;;;5.60;;
16450;SDS011;12243;42.708;23.310;2023-03-14T09:22:34;12.97;;;6.47;;
16450;SDS011;12243;42.708;23.310;2023-03-14T09:25:01;12.20;;;8.90;;
16450;SDS011;12243;42.708;23.310;2023-03-14T09:27:28;8.53;;;6.77;;
16450;SDS011;12243;42.708;23.310;2023-03-14T09:29:55;6.80;;;5.57;;
16450;SDS011;12243;42.708;23.310;2023-03-14T09:32:21;7.90;;;4.97;;
16450;SDS011;12243;42.708;23.310;2023-03-14T09:34:50;6.90;;;5.43;;
16450;SDS011;12243;42.708;23.310;2023-03-14T09:37:17;6.10;;;5.43;;
16450;SDS011;12243;42.708;23.310;2023-03-14T09:39:45;9.70;;;6.83;;
16450;SDS011;12243;42.708;23.310;2023-03-14T09:42:13;8.27;;;6.73;;
16450;SDS011;12243;42.708;23.310;2023-03-14T09:44:45;13.97;;;7.93;;
16450;SDS011;12243;42.708;23.310;2023-03-14T09:47:19;9.47;;;7.30;;
16450;SDS011;12243;42.708;23.310;2023-03-14T09:49:47;7.37;;;6.63;;
16450;SDS011;12243;42.708;23.310;2023-03-14T09:52:16;8.57;;;6.33;;
16450;SDS011;12243;42.708;23.310;2023-03-14T09:54:49;9.27;;;6.53;;
16450;SDS011;12243;42.708;23.310;2023-03-14T09:57:19;6.40;;;5.77;;
16450;SDS011;12243;42.708;23.310;2023-03-14T09:59:50;8.30;;;5.93;;
16450;SDS011;12243;42.708;23.310;2023-03-14T10:02:27;6.27;;;5.67;;
16450;SDS011;12243;42.708;23.310;2023-03-14T10:04:58;11.03;;;6.03;;
16450;SDS011;12243;42.708;23.310;2023-03-14T10:07:28;11.90;;;5.90;;
16450;SDS011;12243;42.708;23.310;2023-03-14T10:09:56;9.07;;;6.20;;
16450;SDS011;12243;42.708;23.310;2023-03-14T10:12:31;6.53;;;5.70;;
16450;SDS011;12243;42.708;23.310;2023-03-14T10:15:00;7.80;;;5.50;;
16450;SDS011;12243;42.708;23.310;2023-03-14T10:17:37;11.07;;;5.20;;
16450;SDS011;12243;42.708;23.310;2023-03-14T10:20:05;9.33;;;5.53;;
16450;SDS011;12243;42.708;23.310;2023-03-14T10:22:37;9.27;;;6.13;;
16450;SDS011;12243;42.708;23.310;2023-03-14T10:25:05;6.93;;;6.23;;
16450;SDS011;12243;42.708;23.310;2023-03-14T10:27:46;8.27;;;6.07;;
16450;SDS011;12243;42.708;23.310;2023-03-14T10:30:27;7.60;;;6.23;;
16450;SDS011;12243;42.708;23.310;2023-03-14T10:32:56;8.47;;;5.97;;
16450;SDS011;12243;42.708;23.310;2023-03-14T10:35:23;9.73;;;7.00;;
16450;SDS011;12243;42.708;23.310;2023-03-14T10:37:53;9.10;;;6.90;;
16450;SDS011;12243;42.708;23.310;2023-03-14T10:40:24;10.90;;;8.13;;
16450;SDS011;12243;42.708;23.310;2023-03-14T10:42:54;11.23;;;7.70;;
16450;SDS011;12243;42.708;23.310;2023-03-14T10:45:25;11.20;;;7.17;;
16450;SDS011;12243;42.708;23.310;2023-03-14T10:47:57;19.70;;;11.50;;
16450;SDS011;12243;42.708;23.310;2023-03-14T10:50:31;17.93;;;9.73;;
16450;SDS011;12243;42.708;23.310;2023-03-14T10:53:02;13.07;;;8.67;;
16450;SDS011;12243;42.708;23.310;2023-03-14T10:55:39;10.17;;;6.67;;
16450;SDS011;12243;42.708;23.310;2023-03-14T10:58:17;16.90;;;8.37;;
16450;SDS011;12243;42.708;23.310;2023-03-14T11:00:48;7.13;;;6.13;;
16450;SDS011;12243;42.708;23.310;2023-03-14T11:03:20;7.00;;;6.30;;
16450;SDS011;12243;42.708;23.310;2023-03-14T11:05:49;9.23;;;6.47;;
16450;SDS011;12243;42.708;23.310;2023-03-14T11:08:23;8.03;;;5.10;;
16450;SDS011;12243;42.708;23.310;2023-03-14T11:10:54;5.90;;;5.00;;
16450;SDS011;12243;42.708;23.310;2023-03-14T11:13:30;5.63;;;4.87;;
16450;SDS011;12243;42.708;23.310;2023-03-14T11:16:06;5.57;;;4.27;;
16450;SDS011;12243;42.708;23.310;2023-03-14T11:18:53;5.03;;;4.20;;
16450;SDS011;12243;42.708;23.310;2023-03-14T11:21:28;6.67;;;4.60;;
16450;SDS011;12243;42.708;23.310;2023-03-14T11:24:03;7.13;;;4.10;;
16450;SDS011;12243;42.708;23.310;2023-03-14T11:26:45;5.80;;;4.27;;
16450;SDS011;12243;42.708;23.310;2023-03-14T11:29:20;5.33;;;4.30;;
16450;SDS011;12243;42.708;23.310;2023-03-14T11:31:51;4.15;;;3.70;;
16450;SDS011;12243;42.708;23.310;2023-03-14T11:34:25;4.57;;;3.90;;
16450;SDS011;12243;42.708;23.310;2023-03-14T11:36:56;4.28;;;3.92;;
16450;SDS011;12243;42.708;23.310;2023-03-14T11:39:32;4.65;;;3.97;;
16450;SDS011;12243;42.708;23.310;2023-03-14T11:42:04;4.38;;;4.03;;
16450;SDS011;12243;42.708;23.310;2023-03-14T11:44:37;3.97;;;3.67;;
16450;SDS011;12243;42.708;23.310;2023-03-14T11:47:07;4.25;;;3.25;;
16450;SDS011;12243;42.708;23.310;2023-03-14T11:49:39;3.65;;;3.35;;
16450;SDS011;12243;42.708;23.310;2023-03-14T11:52:11;6.40;;;3.30;;
16450;SDS011;12243;42.708;23.310;2023-03-14T11:54:46;4.03;;;3.17;;
16450;SDS011;12243;42.708;23.310;2023-03-14T11:57:17;4.53;;;3.65;;
16450;SDS011;12243;42.708;23.310;2023-03-14T11:59:47;5.78;;;3.47;;
16450;SDS011;12243;42.708;23.310;2023-03-14T12:02:20;5.32;;;3.30;;
16450;SDS011;12243;42.708;23.310;2023-03-14T12:04:53;5.25;;;3.90;;
16450;SDS011;12243;42.708;23.310;2023-03-14T12:07:47;6.05;;;3.50;;
16450;SDS011;12243;42.708;23.310;2023-03-14T12:10:38;4.78;;;3.67;;
16450;SDS011;12243;42.708;23.310;2023-03-14T12:13:07;3.95;;;3.53;;
16450;SDS011;12243;42.708;23.310;2023-03-14T12:15:36;3.72;;;3.40;;
16450;SDS011;12243;42.708;23.310;2023-03-14T12:18:14;3.58;;;3.28;;
16450;SDS011;12243;42.708;23.310;2023-03-14T12:20:50;4.57;;;3.53;;
16450;SDS011;12243;42.708;23.310;2023-03-14T12:23:20;3.15;;;2.95;;
16450;SDS011;12243;42.708;23.310;2023-03-14T12:25:48;5.75;;;2.85;;
16450;SDS011;12243;42.708;23.310;2023-03-14T12:28:33;4.25;;;3.17;;
16450;SDS011;12243;42.708;23.310;2023-03-14T12:34:01;6.32;;;3.22;;
16450;SDS011;12243;42.708;23.310;2023-03-14T12:39:20;3.55;;;3.28;;
16450;SDS011;12243;42.708;23.310;2023-03-14T12:41:53;5.07;;;2.70;;
16450;SDS011;12243;42.708;23.310;2023-03-14T12:44:39;2.97;;;2.63;;
16450;SDS011;12243;42.708;23.310;2023-03-14T12:50:16;3.47;;;2.95;;
16450;SDS011;12243;42.708;23.310;2023-03-14T12:56:06;2.90;;;2.70;;
16450;SDS011;12243;42.708;23.310;2023-03-14T12:58:50;5.43;;;3.50;;
16450;SDS011;12243;42.708;23.310;2023-03-14T13:01:44;3.05;;;2.72;;
16450;SDS011;12243;42.708;23.310;2023-03-14T13:04:14;2.30;;;2.20;;
16450;SDS011;12243;42.708;23.310;2023-03-14T13:06:46;2.65;;;2.45;;
16450;SDS011;12243;42.708;23.310;2023-03-14T13:12:19;30.88;;;14.75;;
16450;SDS011;12243;42.708;23.310;2023-03-14T13:14:57;10.02;;;5.50;;
16450;SDS011;12243;42.708;23.310;2023-03-14T13:17:26;2.97;;;2.78;;
16450;SDS011;12243;42.708;23.310;2023-03-14T13:19:57;4.20;;;2.55;;
16450;SDS011;12243;42.708;23.310;2023-03-14T13:22:30;12.57;;;5.90;;
16450;SDS011;12243;42.708;23.310;2023-03-14T13:25:00;8.02;;;4.22;;
16450;SDS011;12243;42.708;23.310;2023-03-14T13:27:29;2.95;;;2.75;;
16450;SDS011;12243;42.708;23.310;2023-03-14T13:29:59;2.88;;;2.60;;
16450;SDS011;12243;42.708;23.310;2023-03-14T13:32:32;3.75;;;2.40;;
16450;SDS011;12243;42.708;23.310;2023-03-14T13:34:59;4.10;;;2.42;;
16450;SDS011;12243;42.708;23.310;2023-03-14T13:37:26;2.47;;;2.10;;
16450;SDS011;12243;42.708;23.310;2023-03-14T13:39:54;4.45;;;2.70;;
16450;SDS011;12243;42.708;23.310;2023-03-14T13:42:24;2.85;;;2.70;;
16450;SDS011;12243;42.708;23.310;2023-03-14T13:44:53;2.60;;;2.38;;
16450;SDS011;12243;42.708;23.310;2023-03-14T13:47:23;2.25;;;2.08;;
16450;SDS011;12243;42.708;23.310;2023-03-14T13:49:52;2.35;;;1.98;;
16450;SDS011;12243;42.708;23.310;2023-03-14T13:55:14;2.40;;;2.30;;
16450;SDS011;12243;42.708;23.310;2023-03-14T13:57:43;3.20;;;2.55;;
16450;SDS011;12243;42.708;23.310;2023-03-14T14:00:18;2.95;;;2.80;;
16450;SDS011;12243;42.708;23.310;2023-03-14T14:02:50;3.33;;;2.55;;
16450;SDS011;12243;42.708;23.310;2023-03-14T14:05:17;2.45;;;2.25;;
16450;SDS011;12243;42.708;23.310;2023-03-14T14:07:44;4.10;;;3.50;;
16450;SDS011;12243;42.708;23.310;2023-03-14T14:10:11;3.38;;;3.08;;
16450;SDS011;12243;42.708;23.310;2023-03-14T14:12:40;3.13;;;2.47;;
16450;SDS011;12243;42.708;23.310;2023-03-14T14:15:11;3.13;;;2.40;;
16450;SDS011;12243;42.708;23.310;2023-03-14T14:17:45;2.40;;;2.20;;
16450;SDS011;12243;42.708;23.310;2023-03-14T14:20:20;3.17;;;2.97;;
16450;SDS011;12243;42.708;23.310;2023-03-14T14:22:50;2.42;;;2.33;;
16450;SDS011;12243;42.708;23.310;2023-03-14T14:25:17;2.58;;;2.45;;
16450;SDS011;12243;42.708;23.310;2023-03-14T14:27:47;2.80;;;2.30;;
16450;SDS011;12243;42.708;23.310;2023-03-14T14:30:26;2.42;;;2.17;;
16450;SDS011;12243;42.708;23.310;2023-03-14T14:33:09;5.32;;;3.58;;
16450;SDS011;12243;42.708;23.310;2023-03-14T14:35:39;3.13;;;2.42;;
16450;SDS011;12243;42.708;23.310;2023-03-14T14:38:10;3.90;;;2.45;;
16450;SDS011;12243;42.708;23.310;2023-03-14T14:40:43;2.22;;;2.08;;
16450;SDS011;12243;42.708;23.310;2023-03-14T14:43:14;2.40;;;2.20;;
16450;SDS011;12243;42.708;23.310;2023-03-14T14:45:45;2.22;;;2.13;;
16450;SDS011;12243;42.708;23.310;2023-03-14T14:48:14;4.15;;;2.08;;
16450;SDS011;12243;42.708;23.310;2023-03-14T14:50:50;3.60;;;2.10;;
16450;SDS011;12243;42.708;23.310;2023-03-14T14:53:28;3.57;;;2.20;;
16450;SDS011;12243;42.708;23.310;2023-03-14T14:55:57;2.83;;;2.22;;
16450;SDS011;12243;42.708;23.310;2023-03-14T14:58:26;3.97;;;2.47;;
16450;SDS011;12243;42.708;23.310;2023-03-14T15:00:56;4.00;;;2.10;;
16450;SDS011;12243;42.708;23.310;2023-03-14T15:03:29;6.23;;;2.43;;
16450;SDS011;12243;42.708;23.310;2023-03-14T15:05:59;4.50;;;2.50;;
16450;SDS011;12243;42.708;23.310;2023-03-14T15:08:26;4.07;;;2.60;;
16450;SDS011;12243;42.708;23.310;2023-03-14T15:10:53;5.53;;;2.93;;